Time;durP1;ratioP1;P1;durP2;ratioP2;P2;SDS_P1;SDS_P2;PMS_P1;PMS_P2;Temp;Humidity;BMP_temperature;BMP_pressure;BME280_temperature;BME280_humidity;BME280_pressure;Samples;Min_cycle;Max_cycle;Signal;HPM_P1;HPM_P2
2022/04/02 00:01:16;;;;;;;7.67;3.77;;;;;;;0.06;100.00;98327.16;4928336;28;20215;-82
2022/04/02 00:03:54;;;;;;;6.80;3.30;;;;;;;-0.02;100.00;98326.56;4968079;28;20192;-83
2022/04/02 00:06:24;;;;;;;5.60;3.40;;;;;;;-0.02;100.00;98317.00;4928139;29;20201;-82
2022/04/02 00:08:57;;;;;;;8.93;3.77;;;;;;;-0.03;100.00;98330.91;4930054;29;20198;-83
2022/04/02 00:11:29;;;;;;;6.93;4.03;;;;;;;0.01;100.00;98328.25;4934846;29;20237;-83
2022/04/02 00:13:59;;;;;;;5.10;3.40;;;;;;;-0.07;100.00;98329.34;4934021;29;20208;-82
2022/04/02 00:16:28;;;;;;;4.80;3.40;;;;;;;-0.06;100.00;98333.66;4928242;29;20221;-83
2022/04/02 00:18:56;;;;;;;6.23;3.70;;;;;;;-0.05;100.00;98334.50;4946441;28;20471;-82
2022/04/02 00:21:25;;;;;;;7.70;3.73;;;;;;;-0.08;100.00;98335.44;4967422;28;20212;-82
2022/04/02 00:23:59;;;;;;;5.57;3.70;;;;;;;0.02;100.00;98332.53;4965903;28;20203;-83
2022/04/02 00:26:31;;;;;;;5.73;3.87;;;;;;;-0.05;100.00;98327.53;4968931;28;20241;-82
2022/04/02 00:29:01;;;;;;;11.53;3.60;;;;;;;-0.11;100.00;98332.09;4967905;28;20250;-82
2022/04/02 00:31:31;;;;;;;6.07;4.10;;;;;;;-0.12;100.00;98328.63;4981684;28;20195;-82
2022/04/02 00:34:01;;;;;;;7.10;3.83;;;;;;;-0.09;100.00;98336.38;4991990;28;20257;-82
2022/04/02 00:36:34;;;;;;;6.60;3.13;;;;;;;-0.04;100.00;98344.84;4994812;28;20214;-82
2022/04/02 00:39:06;;;;;;;8.13;3.50;;;;;;;-0.12;100.00;98333.84;4992322;28;20203;-82
2022/04/02 00:41:36;;;;;;;5.43;3.50;;;;;;;0.01;100.00;98338.66;4993281;28;20430;-82
2022/04/02 00:44:11;;;;;;;7.90;3.80;;;;;;;-0.15;100.00;98338.31;4988009;28;20283;-82
2022/04/02 00:46:42;;;;;;;5.30;3.57;;;;;;;-0.15;100.00;98339.16;4986307;28;20285;-83
2022/04/02 00:49:15;;;;;;;6.57;3.80;;;;;;;-0.09;100.00;98340.72;4934777;29;20197;-82
2022/04/02 00:51:47;;;;;;;8.30;3.77;;;;;;;-0.12;100.00;98335.59;4929841;29;20205;-81
2022/04/02 00:54:22;;;;;;;8.73;4.03;;;;;;;-0.13;100.00;98337.34;4933962;29;20197;-82
2022/04/02 00:56:52;;;;;;;6.40;4.03;;;;;;;-0.14;100.00;98345.22;4932225;29;20226;-82
2022/04/02 00:59:21;;;;;;;6.00;3.40;;;;;;;-0.12;100.00;98333.84;4927902;29;20193;-82
2022/04/02 01:01:49;;;;;;;7.33;3.90;;;;;;;-0.16;100.00;98341.81;4928274;29;20200;-81
2022/04/02 01:04:18;;;;;;;5.43;3.77;;;;;;;-0.18;100.00;98348.84;4933898;29;20197;-81
2022/04/02 01:06:51;;;;;;;6.87;3.43;;;;;;;-0.18;100.00;98341.03;4935620;28;20205;-81
2022/04/02 01:09:21;;;;;;;8.07;4.00;;;;;;;-0.06;100.00;98344.06;4949681;28;20196;-81
2022/04/02 01:11:52;;;;;;;7.30;3.40;;;;;;;-0.13;100.00;98352.13;4876757;29;20195;-81
2022/04/02 01:14:21;;;;;;;7.13;3.60;;;;;;;-0.16;100.00;98349.63;4841431;29;20213;-82
2022/04/02 01:16:50;;;;;;;5.27;3.97;;;;;;;-0.21;100.00;98349.75;4841025;29;20208;-82
2022/04/02 01:19:19;;;;;;;7.80;3.83;;;;;;;-0.26;100.00;98350.84;4843341;29;20224;-82
2022/04/02 01:21:51;;;;;;;10.00;4.03;;;;;;;-0.21;100.00;98347.16;4837117;29;20311;-82
2022/04/02 01:24:20;;;;;;;5.77;3.77;;;;;;;-0.16;100.00;98352.22;4834627;29;20208;-82
2022/04/02 01:26:48;;;;;;;8.53;4.20;;;;;;;-0.20;100.00;98350.63;4838584;29;20204;-81
2022/04/02 01:29:17;;;;;;;6.70;4.30;;;;;;;-0.26;100.00;98348.25;4838855;29;20420;-82
2022/04/02 01:31:47;;;;;;;8.10;4.47;;;;;;;-0.20;100.00;98364.47;4970009;28;20251;-82
2022/04/02 01:34:15;;;;;;;6.70;4.20;;;;;;;-0.27;100.00;98351.75;4986385;28;20203;-82
2022/04/02 01:36:44;;;;;;;4.73;3.80;;;;;;;-0.16;100.00;98360.03;4992056;28;20199;-82
2022/04/02 01:39:15;;;;;;;6.07;3.63;;;;;;;-0.24;100.00;98360.28;4951752;28;20232;-82
2022/04/02 01:41:46;;;;;;;8.80;5.10;;;;;;;-0.28;100.00;98361.31;4948229;28;20264;-81
2022/04/02 01:44:15;;;;;;;9.73;4.23;;;;;;;-0.16;100.00;98354.84;4945682;28;20212;-81
2022/04/02 01:46:45;;;;;;;7.73;4.47;;;;;;;-0.27;100.00;98362.16;4949839;28;20314;-83
2022/04/02 01:49:16;;;;;;;6.03;4.43;;;;;;;-0.29;100.00;98354.38;4950726;28;20200;-83
2022/04/02 01:51:47;;;;;;;5.50;4.30;;;;;;;-0.21;100.00;98361.94;4947154;28;20217;-82
2022/04/02 01:54:22;;;;;;;5.33;4.03;;;;;;;-0.19;100.00;98352.31;4893540;29;20194;-83
2022/04/02 01:56:50;;;;;;;6.67;4.00;;;;;;;-0.28;100.00;98363.06;4904867;28;20204;-83
2022/04/02 01:59:22;;;;;;;5.70;4.13;;;;;;;-0.18;100.00;98354.03;4947428;28;20193;-83
2022/04/02 02:01:54;;;;;;;11.70;4.27;;;;;;;-0.28;100.00;98358.69;4929895;29;20205;-82
2022/04/02 02:04:24;;;;;;;6.23;4.00;;;;;;;-0.25;100.00;98366.38;4931593;29;20197;-84
2022/04/02 02:06:53;;;;;;;6.50;4.10;;;;;;;-0.25;100.00;98373.34;4924085;29;20224;-83
2022/04/02 02:09:25;;;;;;;6.90;4.43;;;;;;;-0.24;100.00;98378.50;4928682;29;20221;-83
2022/04/02 02:11:58;;;;;;;8.30;4.57;;;;;;;-0.31;100.00;98374.38;4937478;28;20207;-83
2022/04/02 02:14:29;;;;;;;8.07;4.43;;;;;;;-0.28;100.00;98382.13;4893224;29;20212;-83
2022/04/02 02:16:57;;;;;;;7.40;4.10;;;;;;;-0.28;100.00;98374.31;4889815;29;20233;-83
2022/04/02 02:19:27;;;;;;;6.43;4.47;;;;;;;-0.25;100.00;98384.59;4858932;29;20200;-83
2022/04/02 02:21:57;;;;;;;8.97;4.50;;;;;;;-0.31;100.00;98375.25;4856157;29;20223;-84
2022/04/02 02:24:34;;;;;;;6.23;3.93;;;;;;;-0.15;100.00;98391.19;4838826;29;20211;-83
2022/04/02 02:27:04;;;;;;;7.17;4.27;;;;;;;-0.37;100.00;98385.00;4841306;29;20219;-82
2022/04/02 02:29:32;;;;;;;7.70;4.30;;;;;;;-0.35;100.00;98389.25;4849542;29;20205;-81
2022/04/02 02:32:02;;;;;;;8.30;4.20;;;;;;;-0.32;100.00;98390.91;4860112;29;20209;-83
2022/04/02 02:37:20;;;;;;;6.53;4.40;;;;;;;-0.31;100.00;98390.84;4939855;28;20223;-83
2022/04/02 02:39:52;;;;;;;8.27;4.57;;;;;;;-0.33;100.00;98389.19;4920760;29;20206;-83
2022/04/02 02:42:21;;;;;;;6.73;4.77;;;;;;;-0.27;100.00;98394.22;4925514;29;20197;-83
2022/04/02 02:44:51;;;;;;;9.40;5.20;;;;;;;-0.34;100.00;98392.72;4954206;28;20207;-83
2022/04/02 02:47:22;;;;;;;8.13;5.07;;;;;;;-0.35;100.00;98398.81;4900905;29;20222;-83
2022/04/02 02:49:56;;;;;;;9.13;5.87;;;;;;;-0.38;100.00;98402.38;4897808;29;20210;-83
2022/04/02 02:52:31;;;;;;;8.80;5.53;;;;;;;-0.25;100.00;98399.38;4895554;29;20214;-83
2022/04/02 02:55:04;;;;;;;8.07;5.90;;;;;;;-0.37;100.00;98398.88;4895373;29;20204;-83
2022/04/02 02:57:38;;;;;;;7.73;5.87;;;;;;;-0.34;100.00;98406.56;4872365;29;20198;-83
2022/04/02 03:00:08;;;;;;;8.87;6.30;;;;;;;-0.33;100.00;98397.84;4897842;29;20202;-83
2022/04/02 03:02:37;;;;;;;9.07;5.73;;;;;;;-0.30;100.00;98399.50;4897912;29;20202;-83
2022/04/02 03:05:10;;;;;;;9.67;5.93;;;;;;;-0.28;100.00;98396.88;4902113;29;20195;-83
2022/04/02 03:07:48;;;;;;;9.00;6.23;;;;;;;-0.42;100.00;98395.56;4904577;29;20190;-83
2022/04/02 03:10:23;;;;;;;8.07;5.67;;;;;;;-0.34;100.00;98400.50;4898495;29;20248;-83
2022/04/02 03:12:54;;;;;;;12.70;6.17;;;;;;;-0.31;100.00;98405.59;4964627;28;20207;-84
2022/04/02 03:15:32;;;;;;;9.57;6.60;;;;;;;-0.33;100.00;98404.81;4979206;28;20206;-82
2022/04/02 03:18:04;;;;;;;8.70;5.57;;;;;;;-0.36;100.00;98403.16;5008134;28;20202;-82
2022/04/02 03:20:36;;;;;;;8.90;6.00;;;;;;;-0.32;100.00;98406.50;5010361;28;20222;-83
2022/04/02 03:23:09;;;;;;;7.57;5.90;;;;;;;-0.42;100.00;98405.09;5008970;28;20214;-83
2022/04/02 03:25:41;;;;;;;7.70;5.50;;;;;;;-0.41;100.00;98410.25;5013945;28;20214;-83
2022/04/02 03:28:12;;;;;;;7.23;5.23;;;;;;;-0.46;100.00;98409.56;4878443;29;20202;-82
2022/04/02 03:30:46;;;;;;;6.67;4.93;;;;;;;-0.43;100.00;98409.47;4873916;29;20275;-82
2022/04/02 03:33:20;;;;;;;11.17;5.17;;;;;;;-0.44;100.00;98417.31;4804948;29;20198;-82
2022/04/02 03:35:48;;;;;;;9.83;5.70;;;;;;;-0.49;100.00;98420.03;4804971;29;20213;-82
2022/04/02 03:38:18;;;;;;;6.90;5.20;;;;;;;-0.47;100.00;98423.47;4805734;29;20245;-83
2022/04/02 03:40:49;;;;;;;8.97;5.57;;;;;;;-0.51;100.00;98421.00;4804247;29;20209;-82
2022/04/02 03:43:21;;;;;;;7.43;5.37;;;;;;;-0.47;100.00;98420.88;4800102;29;20261;-82
2022/04/02 03:45:53;;;;;;;9.40;5.20;;;;;;;-0.47;100.00;98426.06;4811027;29;20276;-82
2022/04/02 03:48:42;;;;;;;9.67;5.90;;;;;;;-0.42;100.00;98426.75;4842446;29;20228;-83
2022/04/02 03:51:11;;;;;;;6.77;4.97;;;;;;;-0.53;100.00;98431.47;4838723;29;20205;-82
2022/04/02 03:53:39;;;;;;;9.33;5.37;;;;;;;-0.46;100.00;98427.78;4839005;29;20208;-82
2022/04/02 03:56:10;;;;;;;9.17;5.60;;;;;;;-0.37;100.00;98427.47;4837758;29;20517;-82
2022/04/02 03:58:39;;;;;;;9.40;5.50;;;;;;;-0.51;100.00;98429.66;4911167;28;20651;-82
2022/04/02 04:01:09;;;;;;;12.87;5.27;;;;;;;-0.52;100.00;98432.31;4990548;28;20249;-82
2022/04/02 04:03:37;;;;;;;8.83;5.13;;;;;;;-0.52;100.00;98437.50;4994005;28;20191;-82
2022/04/02 04:06:07;;;;;;;8.47;4.70;;;;;;;-0.57;100.00;98432.47;4995263;28;20215;-83
2022/04/02 04:08:36;;;;;;;8.47;4.97;;;;;;;-0.52;100.00;98440.09;4921054;29;20198;-82
2022/04/02 04:11:05;;;;;;;6.87;5.33;;;;;;;-0.54;100.00;98442.75;4932127;29;20707;-82
2022/04/02 04:13:38;;;;;;;6.97;4.80;;;;;;;-0.53;100.00;98452.25;4930446;29;20230;-82
2022/04/02 04:16:09;;;;;;;6.80;4.73;;;;;;;-0.55;100.00;98442.81;4933362;29;20201;-82
2022/04/02 04:18:38;;;;;;;6.27;4.73;;;;;;;-0.51;100.00;98450.47;4899562;29;20197;-82
2022/04/02 04:21:06;;;;;;;8.53;4.53;;;;;;;-0.56;100.00;98447.16;4877036;29;20330;-81
2022/04/02 04:23:35;;;;;;;6.53;4.60;;;;;;;-0.52;100.00;98446.16;4878709;29;20693;-82
2022/04/02 04:26:07;;;;;;;7.40;4.60;;;;;;;-0.55;100.00;98450.63;4882037;29;20282;-82
2022/04/02 04:28:38;;;;;;;9.37;4.70;;;;;;;-0.52;100.00;98456.56;4878560;29;20195;-82
2022/04/02 04:31:07;;;;;;;6.37;4.43;;;;;;;-0.53;100.00;98457.47;4874962;29;20261;-83
2022/04/02 04:33:37;;;;;;;6.17;4.50;;;;;;;-0.60;100.00;98464.59;4878472;29;20203;-82
2022/04/02 04:36:11;;;;;;;5.80;4.30;;;;;;;-0.60;100.00;98469.78;4879807;29;20207;-81
2022/04/02 04:38:40;;;;;;;9.17;4.50;;;;;;;-0.57;100.00;98468.03;4890496;28;20272;-83
2022/04/02 04:41:09;;;;;;;7.37;4.43;;;;;;;-0.52;100.00;98466.13;4985764;28;20199;-82
2022/04/02 04:43:41;;;;;;;6.90;4.60;;;;;;;-0.61;100.00;98467.25;4989446;28;20218;-82
2022/04/02 04:46:16;;;;;;;6.23;4.90;;;;;;;-0.55;100.00;98471.41;4958237;28;20199;-82
2022/04/02 04:48:47;;;;;;;7.27;5.37;;;;;;;-0.56;100.00;98475.78;4990474;28;20201;-82
2022/04/02 04:51:18;;;;;;;8.57;5.07;;;;;;;-0.63;100.00;98471.66;4970405;28;20192;-82
2022/04/02 04:53:47;;;;;;;7.73;5.30;;;;;;;-0.69;100.00;98479.63;4970191;28;20290;-82
2022/04/02 04:56:16;;;;;;;8.37;5.80;;;;;;;-0.68;100.00;98473.50;4970709;28;20270;-82
2022/04/02 04:58:47;;;;;;;6.40;5.80;;;;;;;-0.65;100.00;98478.66;4969751;28;20291;-82
2022/04/02 05:01:15;;;;;;;8.20;5.63;;;;;;;-0.65;100.00;98487.28;4915358;29;20200;-81
2022/04/02 05:03:45;;;;;;;9.10;6.03;;;;;;;-0.65;100.00;98489.91;4934090;29;20205;-81
2022/04/02 05:06:18;;;;;;;7.03;5.50;;;;;;;-0.68;100.00;98487.38;4932307;29;20293;-82
2022/04/02 05:08:46;;;;;;;11.63;6.60;;;;;;;-0.74;100.00;98486.72;4931169;29;20676;-81
2022/04/02 05:11:15;;;;;;;8.83;5.87;;;;;;;-0.67;100.00;98491.69;4926796;29;20211;-82
2022/04/02 05:13:44;;;;;;;7.37;6.23;;;;;;;-0.72;100.00;98496.16;4927537;29;20236;-82
2022/04/02 05:16:23;;;;;;;8.20;5.70;;;;;;;-0.69;100.00;98495.22;4876502;29;20215;-81
2022/04/02 05:18:56;;;;;;;8.50;6.33;;;;;;;-0.73;100.00;98502.25;4893867;28;20252;-81
2022/04/02 05:21:26;;;;;;;9.10;5.53;;;;;;;-0.65;100.00;98497.69;4945721;28;20236;-82
2022/04/02 05:23:57;;;;;;;7.37;6.10;;;;;;;-0.75;100.00;98498.88;4897299;29;20213;-81
2022/04/02 05:26:26;;;;;;;7.20;5.70;;;;;;;-0.77;100.00;98500.66;4952367;28;20221;-80
2022/04/02 05:28:56;;;;;;;9.10;6.47;;;;;;;-0.72;100.00;98509.16;4951865;28;20244;-81
2022/04/02 05:31:26;;;;;;;8.77;5.80;;;;;;;-0.68;100.00;98513.38;4948970;28;20204;-81
2022/04/02 05:33:55;;;;;;;7.43;6.07;;;;;;;-0.68;100.00;98510.75;4947418;28;20196;-81
2022/04/02 05:36:24;;;;;;;7.57;5.87;;;;;;;-0.68;100.00;98517.72;4951052;28;20755;-81
2022/04/02 05:38:55;;;;;;;7.67;6.47;;;;;;;-0.58;100.00;98521.75;4953246;28;20207;-81
2022/04/02 05:41:24;;;;;;;7.23;6.30;;;;;;;-0.69;100.00;98524.66;4977957;28;20273;-81
2022/04/02 05:43:53;;;;;;;8.77;5.53;;;;;;;-0.63;100.00;98537.50;4993014;28;20241;-81
2022/04/02 05:46:23;;;;;;;7.33;5.80;;;;;;;-0.52;100.00;98533.72;4993415;28;20652;-81
2022/04/02 05:48:53;;;;;;;12.50;5.53;;;;;;;-0.42;100.00;98538.59;4991957;28;20230;-81
2022/04/02 05:51:24;;;;;;;8.97;6.17;;;;;;;-0.49;100.00;98531.88;4950715;28;20236;-81
2022/04/02 05:53:53;;;;;;;11.63;5.87;;;;;;;-0.42;100.00;98536.00;4954712;28;20379;-81
2022/04/02 05:56:23;;;;;;;8.20;5.30;;;;;;;-0.52;100.00;98541.53;4950790;28;20192;-82
2022/04/02 05:58:51;;;;;;;6.73;4.90;;;;;;;-0.52;100.00;98537.19;4952605;28;20200;-81
2022/04/02 06:01:20;;;;;;;7.90;5.30;;;;;;;-0.58;100.00;98542.56;4954087;28;20193;-81
2022/04/02 06:03:49;;;;;;;7.77;4.87;;;;;;;-0.57;100.00;98546.03;4951883;28;20228;-81
2022/04/02 06:06:21;;;;;;;8.03;4.87;;;;;;;-0.49;100.00;98549.22;4954925;28;20195;-81
2022/04/02 06:08:51;;;;;;;7.37;4.83;;;;;;;-0.50;100.00;98545.78;4964156;28;20218;-81
2022/04/02 06:11:26;;;;;;;5.73;4.70;;;;;;;-0.53;100.00;98548.47;4940335;29;20204;-80
2022/04/02 06:13:55;;;;;;;6.13;4.50;;;;;;;-0.41;100.00;98552.47;4944947;29;20207;-80
2022/04/02 06:16:26;;;;;;;8.23;4.20;;;;;;;-0.42;100.00;98550.75;4935720;29;20299;-83
2022/04/02 06:18:54;;;;;;;6.93;4.63;;;;;;;-0.46;100.00;98554.38;4899424;29;20202;-81
2022/04/02 06:21:24;;;;;;;6.07;4.83;;;;;;;-0.37;100.00;98552.34;4898166;29;20234;-80
2022/04/02 06:23:58;;;;;;;5.30;4.53;;;;;;;-0.31;100.00;98559.94;4900717;29;20206;-83
2022/04/02 06:26:27;;;;;;;8.37;4.80;;;;;;;-0.31;100.00;98566.91;4899016;29;20213;-80
2022/04/02 06:28:59;;;;;;;5.70;4.37;;;;;;;-0.15;100.00;98565.56;4898180;29;20240;-81
2022/04/02 06:31:28;;;;;;;6.23;4.00;;;;;;;-0.18;100.00;98568.25;4899330;29;20250;-81
2022/04/02 06:34:02;;;;;;;6.77;4.60;;;;;;;-0.12;100.00;98575.00;4897206;29;20206;-81
2022/04/02 06:36:39;;;;;;;9.03;4.50;;;;;;;-0.10;100.00;98568.84;4899061;29;20254;-80
2022/04/02 06:39:09;;;;;;;5.97;4.50;;;;;;;-0.04;100.00;98571.28;4895921;29;20206;-81
2022/04/02 06:41:38;;;;;;;8.87;4.17;;;;;;;0.04;100.00;98570.19;4906261;29;20295;-81
2022/04/02 06:44:08;;;;;;;7.23;4.30;;;;;;;0.02;100.00;98567.66;4955383;28;20193;-80
2022/04/02 06:46:42;;;;;;;4.87;3.90;;;;;;;0.13;100.00;98575.97;4956900;28;20283;-83
2022/04/02 06:49:10;;;;;;;6.63;3.50;;;;;;;0.23;100.00;98572.16;4958533;28;20320;-81
2022/04/02 06:51:41;;;;;;;5.93;3.73;;;;;;;0.33;100.00;98585.75;4996324;28;20202;-81
2022/04/02 06:54:09;;;;;;;6.57;3.73;;;;;;;0.25;100.00;98579.94;4996368;28;20199;-80
2022/04/02 06:56:38;;;;;;;5.13;3.17;;;;;;;0.43;100.00;98574.13;4997690;28;20199;-83
2022/04/02 06:59:07;;;;;;;4.47;3.40;;;;;;;0.36;100.00;98585.63;4996514;28;20198;-81
2022/04/02 07:01:36;;;;;;;5.87;3.23;;;;;;;0.50;100.00;98578.25;4998152;28;20203;-81
2022/04/02 07:04:09;;;;;;;6.33;3.10;;;;;;;0.53;100.00;98580.75;4999187;28;20210;-81
2022/04/02 07:06:44;;;;;;;5.17;3.73;;;;;;;0.58;100.00;98580.59;4995911;28;20214;-81
2022/04/02 07:09:17;;;;;;;7.70;3.17;;;;;;;0.64;100.00;98588.19;4995177;28;20249;-81
2022/04/02 07:11:45;;;;;;;5.23;3.40;;;;;;;0.80;100.00;98593.75;5012134;28;20206;-81
2022/04/02 07:14:14;;;;;;;4.00;2.53;;;;;;;0.64;100.00;98584.75;5009163;28;20206;-83
2022/04/02 07:16:43;;;;;;;6.07;3.03;;;;;;;0.64;100.00;98593.41;5009785;28;20198;-81
2022/04/02 07:19:13;;;;;;;6.60;3.00;;;;;;;0.69;100.00;98596.72;5009022;28;20226;-81
2022/04/02 07:21:44;;;;;;;3.57;2.80;;;;;;;0.71;100.00;98596.66;5008676;28;20226;-81
2022/04/02 07:24:14;;;;;;;4.00;2.43;;;;;;;0.76;100.00;98603.41;5006889;28;20198;-81
2022/04/02 07:26:45;;;;;;;4.63;2.87;;;;;;;0.83;100.00;98604.06;5002441;28;20401;-81
2022/04/02 07:29:17;;;;;;;4.20;2.80;;;;;;;0.95;100.00;98613.22;5002884;28;20246;-81
2022/04/02 07:31:46;;;;;;;5.47;2.77;;;;;;;0.87;100.00;98603.09;4998857;28;20203;-81
2022/04/02 07:34:22;;;;;;;3.70;2.80;;;;;;;0.99;100.00;98607.03;4993063;28;20198;-81
2022/04/02 07:37:14;;;;;;;4.43;2.40;;;;;;;0.94;100.00;98608.91;4996219;28;20202;-81
2022/04/02 07:39:50;;;;;;;4.87;3.27;;;;;;;0.99;100.00;98613.09;4996925;28;20207;-81
2022/04/02 07:42:23;;;;;;;4.83;2.80;;;;;;;1.03;100.00;98616.44;5008567;28;20199;-81
2022/04/02 07:45:03;;;;;;;3.90;2.90;;;;;;;1.19;100.00;98621.97;5008323;28;20213;-81
2022/04/02 07:47:32;;;;;;;4.50;3.37;;;;;;;1.28;100.00;98630.34;5013460;28;20200;-81
2022/04/02 07:50:02;;;;;;;6.17;3.33;;;;;;;1.43;100.00;98626.31;5007074;28;20225;-81
2022/04/02 07:52:33;;;;;;;5.97;3.37;;;;;;;1.59;100.00;98632.69;5008336;28;20202;-81
2022/04/02 07:55:09;;;;;;;4.57;2.70;;;;;;;1.43;100.00;98635.00;5011241;28;20190;-81
2022/04/02 07:57:41;;;;;;;6.93;3.40;;;;;;;1.58;100.00;98632.75;5004153;28;20206;-81
2022/04/02 08:00:11;;;;;;;5.33;3.00;;;;;;;1.40;100.00;98632.50;4999430;28;20198;-81
2022/04/02 08:02:42;;;;;;;6.50;2.77;;;;;;;1.34;100.00;98624.88;4992513;28;20199;-81
2022/04/02 08:05:12;;;;;;;4.20;3.20;;;;;;;1.63;100.00;98636.03;4990406;28;20229;-82
2022/04/02 08:07:49;;;;;;;5.90;3.33;;;;;;;1.79;100.00;98637.19;4995800;28;20214;-81
2022/04/02 08:10:22;;;;;;;5.73;3.60;;;;;;;1.66;100.00;98633.34;4993476;28;20222;-81
2022/04/02 08:12:57;;;;;;;5.47;3.30;;;;;;;1.69;100.00;98630.59;4996519;28;20229;-81
2022/04/02 08:15:25;;;;;;;6.33;3.70;;;;;;;1.49;100.00;98641.75;4995160;28;20190;-82
2022/04/02 08:17:56;;;;;;;5.43;3.60;;;;;;;1.52;100.00;98636.41;4986370;28;20207;-81
2022/04/02 08:20:25;;;;;;;4.43;3.50;;;;;;;1.36;100.00;98638.75;4993635;28;20203;-81
2022/04/02 08:22:56;;;;;;;5.40;4.10;;;;;;;1.36;100.00;98643.09;4993743;28;20191;-82
2022/04/02 08:25:24;;;;;;;4.97;3.70;;;;;;;1.28;100.00;98642.53;4994498;28;20239;-81
2022/04/02 08:28:04;;;;;;;8.00;4.30;;;;;;;1.38;100.00;98647.34;4994121;28;20282;-81
2022/04/02 08:30:34;;;;;;;8.80;4.00;;;;;;;1.34;100.00;98643.13;4992476;28;20226;-81
2022/04/02 08:33:36;;;;;;;6.10;4.13;;;;;;;1.65;100.00;98653.38;4991555;28;20199;-81
2022/04/02 08:36:17;;;;;;;7.13;4.40;;;;;;;1.70;100.00;98661.84;4995153;28;20195;-81
2022/04/02 08:38:55;;;;;;;7.87;4.97;;;;;;;1.60;100.00;98654.41;4989210;28;20210;-81
2022/04/02 08:42:00;;;;;;;8.53;4.87;;;;;;;1.69;100.00;98665.38;4994624;28;20278;-81
2022/04/02 08:45:00;;;;;;;5.97;4.27;;;;;;;1.68;100.00;98665.44;4994607;28;20199;-84
2022/04/02 08:48:19;;;;;;;5.73;4.70;;;;;;;1.67;100.00;98661.13;4993164;28;20203;-82
2022/04/02 08:50:54;;;;;;;6.20;3.83;;;;;;;1.63;100.00;98665.59;4994661;28;20198;-81
2022/04/02 08:53:43;;;;;;;8.63;5.13;;;;;;;1.63;100.00;98669.97;4993955;28;20326;-82
2022/04/02 08:56:21;;;;;;;7.00;4.40;;;;;;;1.70;100.00;98682.75;4993697;28;20192;-82
2022/04/02 08:59:01;;;;;;;6.87;5.00;;;;;;;1.72;100.00;98680.91;4992066;28;20209;-83
2022/04/02 09:01:38;;;;;;;7.33;4.87;;;;;;;1.76;100.00;98681.69;4994462;28;20286;-83
2022/04/02 09:04:54;;;;;;;8.90;5.30;;;;;;;1.75;100.00;98686.97;4994795;28;20199;-83
2022/04/02 09:07:55;;;;;;;5.67;4.37;;;;;;;1.82;100.00;98689.28;4959093;28;20195;-83
2022/04/02 09:11:24;;;;;;;6.07;4.70;;;;;;;2.15;100.00;98686.34;4996656;28;20222;-82
2022/04/02 09:14:30;;;;;;;7.80;4.43;;;;;;;1.82;100.00;98699.72;4971649;28;20259;-82
2022/04/02 09:17:06;;;;;;;6.33;4.83;;;;;;;2.10;100.00;98689.09;4970181;28;20766;-82
2022/04/02 09:19:52;;;;;;;9.50;4.30;;;;;;;2.33;100.00;98703.94;4979847;28;20198;-83
2022/04/02 09:22:33;;;;;;;5.80;4.37;;;;;;;2.22;100.00;98701.75;4993822;28;20229;-83
2022/04/02 09:25:38;;;;;;;7.03;4.27;;;;;;;2.43;100.00;98699.22;4992439;28;20202;-84
2022/04/02 09:28:11;;;;;;;4.53;3.90;;;;;;;2.58;100.00;98702.06;4992969;28;20207;-84
2022/04/02 09:31:20;;;;;;;5.23;3.77;;;;;;;2.77;100.00;98704.81;4995271;28;20215;-84
2022/04/02 09:34:27;;;;;;;6.30;4.00;;;;;;;2.87;100.00;98700.06;4994111;28;20199;-85
2022/04/02 09:37:04;;;;;;;8.70;4.07;;;;;;;2.94;100.00;98706.75;4995112;28;20215;-84
2022/04/02 09:39:53;;;;;;;8.67;4.30;;;;;;;2.71;100.00;98694.59;4992721;28;20205;-84
2022/04/02 09:42:35;;;;;;;5.20;3.93;;;;;;;2.72;100.00;98703.31;4994241;28;20274;-84
2022/04/02 09:45:06;;;;;;;7.13;3.90;;;;;;;2.87;100.00;98711.38;4990355;28;20246;-83
2022/04/02 09:47:53;;;;;;;6.00;3.83;;;;;;;3.14;100.00;98719.03;4991551;28;20214;-83
2022/04/02 09:50:25;;;;;;;6.50;4.00;;;;;;;3.18;100.00;98720.59;4995545;28;20222;-84
2022/04/02 09:52:56;;;;;;;4.77;3.43;;;;;;;3.14;100.00;98722.50;4992158;28;20681;-85
2022/04/02 09:55:27;;;;;;;5.67;3.60;;;;;;;3.02;100.00;98722.16;4994937;28;20198;-84
2022/04/02 09:58:26;;;;;;;4.70;3.37;;;;;;;3.25;100.00;98721.19;4992375;28;20203;-86
2022/04/02 10:01:04;;;;;;;3.87;3.40;;;;;;;3.62;100.00;98718.72;4988469;28;20265;-86
2022/04/02 10:03:39;;;;;;;6.40;3.70;;;;;;;3.22;100.00;98722.19;4991438;28;20199;-85
2022/04/02 10:06:28;;;;;;;5.57;3.53;;;;;;;3.21;100.00;98727.47;4990125;28;20203;-85
2022/04/02 10:09:07;;;;;;;4.40;3.33;;;;;;;3.78;100.00;98723.31;4989702;28;20203;-85
2022/04/02 10:11:39;;;;;;;6.53;4.00;;;;;;;3.50;100.00;98739.34;4993710;28;20190;-84
2022/04/02 10:14:08;;;;;;;4.73;3.07;;;;;;;3.64;100.00;98732.59;4987904;28;20233;-83
2022/04/02 10:16:40;;;;;;;6.77;3.57;;;;;;;3.33;100.00;98730.44;4998034;28;20199;-84
2022/04/02 10:19:10;;;;;;;4.20;3.30;;;;;;;3.56;100.00;98736.47;4992769;28;20191;-83
2022/04/02 10:21:49;;;;;;;4.30;3.53;;;;;;;3.51;100.00;98736.66;4989447;28;20230;-83
2022/04/02 10:24:22;;;;;;;7.27;3.30;;;;;;;3.86;100.00;98736.91;4991220;28;20202;-85
2022/04/02 10:26:55;;;;;;;4.97;3.40;;;;;;;3.71;100.00;98736.66;4990452;28;20187;-85
2022/04/02 10:29:53;;;;;;;3.97;2.90;;;;;;;3.44;100.00;98733.44;4990180;28;20203;-87
2022/04/02 10:32:47;;;;;;;5.03;3.53;;;;;;;3.66;100.00;98740.38;4952446;28;20204;-86
2022/04/02 10:35:15;;;;;;;4.40;3.20;;;;;;;3.80;100.00;98737.19;4943011;28;20207;-88
2022/04/02 10:38:03;;;;;;;3.73;3.00;;;;;;;3.69;100.00;98746.38;4953213;28;20211;-88
2022/04/02 10:40:33;;;;;;;5.73;3.20;;;;;;;4.06;100.00;98739.53;4950261;28;20276;-89
2022/04/02 10:43:06;;;;;;;6.17;3.20;;;;;;;4.02;100.00;98738.78;4951479;28;20197;-89
2022/04/02 10:45:39;;;;;;;4.77;3.27;;;;;;;3.59;100.00;98745.06;4955603;28;20192;-90
2022/04/02 10:48:14;;;;;;;5.60;3.10;;;;;;;3.78;100.00;98746.88;4954887;28;20711;-91
2022/04/02 10:50:46;;;;;;;7.93;3.30;;;;;;;3.90;100.00;98744.56;4976983;28;20374;-91
2022/04/02 10:53:18;;;;;;;3.83;3.33;;;;;;;3.35;100.00;98746.91;4997898;28;20210;-91
2022/04/02 10:55:50;;;;;;;6.93;3.13;;;;;;;3.92;100.00;98757.59;4995040;28;20282;-93
2022/04/02 10:58:22;;;;;;;6.43;3.30;;;;;;;3.86;100.00;98752.63;5007987;28;20218;-91
2022/04/02 11:00:55;;;;;;;6.97;3.30;;;;;;;3.92;100.00;98768.94;5009712;28;20202;-92
2022/04/02 11:03:35;;;;;;;5.07;2.93;;;;;;;3.78;100.00;98760.84;5015423;28;20243;-90
2022/04/02 11:06:04;;;;;;;5.47;2.83;;;;;;;3.93;100.00;98772.41;5013942;28;20207;-92
2022/04/02 11:08:34;;;;;;;3.50;3.13;;;;;;;4.30;100.00;98763.78;5000207;28;20194;-92
2022/04/02 11:11:17;;;;;;;5.67;2.97;;;;;;;4.47;100.00;98770.88;4998617;28;20322;-91
2022/04/02 11:13:45;;;;;;;4.43;3.03;;;;;;;4.88;100.00;98771.59;4994106;28;20236;-89
2022/04/02 11:16:16;;;;;;;4.33;2.60;;;;;;;4.80;100.00;98773.72;4996188;28;20210;-86
2022/04/02 11:21:36;;;;;;;4.77;3.30;;;;;;;4.86;100.00;98771.66;4993224;28;20238;-84
2022/04/02 11:24:14;;;;;;;5.67;3.10;;;;;;;4.86;100.00;98770.81;5011845;28;20673;-83
2022/04/02 11:26:46;;;;;;;4.03;2.80;;;;;;;4.97;100.00;98771.16;5009597;28;20206;-82
2022/04/02 11:29:23;;;;;;;7.13;2.80;;;;;;;4.84;100.00;98770.88;5007796;28;20236;-82
2022/04/02 11:31:52;;;;;;;4.50;2.80;;;;;;;4.62;100.00;98770.16;5005022;28;20222;-82
2022/04/02 11:34:28;;;;;;;4.97;3.33;;;;;;;4.73;100.00;98778.41;5009776;28;20202;-83
2022/04/02 11:37:03;;;;;;;4.57;3.37;;;;;;;4.49;100.00;98772.50;5007794;28;20592;-82
2022/04/02 11:39:41;;;;;;;4.87;3.00;;;;;;;4.65;100.00;98777.91;5014444;28;20210;-83
2022/04/02 11:42:15;;;;;;;4.80;3.37;;;;;;;5.02;100.00;98782.28;5002315;28;20199;-82
2022/04/02 11:44:52;;;;;;;5.50;2.90;;;;;;;5.29;100.00;98781.88;4997206;28;20206;-82
2022/04/02 11:47:28;;;;;;;6.43;2.97;;;;;;;5.00;100.00;98789.38;4997876;28;20199;-83
2022/04/02 11:50:05;;;;;;;6.67;3.00;;;;;;;4.99;100.00;98787.66;4997817;28;20194;-82
2022/04/02 11:52:50;;;;;;;4.07;2.53;;;;;;;4.98;100.00;98793.84;4993297;28;20199;-82
2022/04/02 11:55:21;;;;;;;6.53;3.07;;;;;;;5.23;100.00;98787.44;4975786;28;20235;-83
2022/04/02 11:58:02;;;;;;;5.77;3.20;;;;;;;5.40;100.00;98795.31;4972075;28;20474;-83
2022/04/02 12:00:32;;;;;;;5.23;3.10;;;;;;;4.69;100.00;98803.06;4976058;28;20196;-83
2022/04/02 12:03:02;;;;;;;4.93;3.03;;;;;;;4.92;100.00;98803.75;4991147;28;20249;-84
2022/04/02 12:05:37;;;;;;;3.60;2.47;;;;;;;4.79;100.00;98799.09;4993565;28;20199;-84